createdAt,value
2019-03-31T00:00:53.097Z,0.00
2019-03-31T00:01:53.088Z,0.00
2019-03-31T00:02:53.088Z,0.00
2019-03-31T00:03:53.061Z,0.00
2019-03-31T00:04:53.053Z,0.00
2019-03-31T00:05:53.094Z,0.00
2019-03-31T00:06:53.029Z,0.00
2019-03-31T00:07:53.018Z,0.00
2019-03-31T00:08:53.071Z,0.00
2019-03-31T00:09:52.992Z,0.00
2019-03-31T00:10:52.982Z,0.00
2019-03-31T00:11:52.998Z,0.00
2019-03-31T00:12:52.992Z,0.00
2019-03-31T00:13:52.949Z,0.00
2019-03-31T00:14:52.981Z,0.00
2019-03-31T00:15:52.928Z,0.00
2019-03-31T00:16:52.920Z,0.00
2019-03-31T00:17:52.918Z,0.00
2019-03-31T00:18:52.894Z,0.00
2019-03-31T00:19:52.882Z,0.00
2019-03-31T00:20:52.913Z,0.00
2019-03-31T00:21:52.905Z,0.00
2019-03-31T00:22:52.852Z,0.00
2019-03-31T00:23:52.856Z,0.00
2019-03-31T00:24:53.608Z,0.00
2019-03-31T00:25:52.819Z,0.00
2019-03-31T00:26:52.803Z,0.00
2019-03-31T00:27:52.837Z,0.00
2019-03-31T00:28:52.783Z,0.00
2019-03-31T00:29:52.771Z,0.00
2019-03-31T00:30:52.758Z,0.00
2019-03-31T00:31:52.761Z,0.00
2019-03-31T00:32:52.737Z,0.00
2019-03-31T00:33:52.766Z,0.00
2019-03-31T00:34:52.738Z,0.00
2019-03-31T00:35:52.706Z,0.00
2019-03-31T00:36:52.709Z,0.00
2019-03-31T00:37:52.687Z,0.00
2019-03-31T00:38:52.683Z,0.00
2019-03-31T00:39:52.700Z,0.00
2019-03-31T00:40:52.671Z,0.00
2019-03-31T00:41:52.634Z,0.00
2019-03-31T00:42:52.628Z,0.00
2019-03-31T00:43:52.668Z,0.00
2019-03-31T00:44:52.603Z,0.00
2019-03-31T00:45:52.621Z,0.00
2019-03-31T00:46:52.580Z,0.00
2019-03-31T00:47:52.577Z,0.00
2019-03-31T00:48:52.558Z,0.00
2019-03-31T00:49:52.587Z,0.00
2019-03-31T00:50:52.540Z,0.00
2019-03-31T00:51:52.535Z,0.00
2019-03-31T00:52:52.513Z,0.00
2019-03-31T00:53:52.501Z,0.00
2019-03-31T00:54:52.534Z,0.00
2019-03-31T00:55:52.521Z,0.00
2019-03-31T00:56:52.473Z,0.00
2019-03-31T00:57:52.458Z,0.00
2019-03-31T00:58:52.444Z,0.00
2019-03-31T00:59:52.476Z,0.00
2019-03-31T01:00:52.428Z,0.00
2019-03-31T01:01:52.418Z,0.00
2019-03-31T01:02:52.410Z,0.00
2019-03-31T01:03:52.434Z,0.00
2019-03-31T01:04:52.385Z,0.00
2019-03-31T01:05:52.365Z,0.00
2019-03-31T01:06:52.355Z,0.00
2019-03-31T01:07:52.399Z,0.00
2019-03-31T01:08:52.333Z,0.00
2019-03-31T01:09:52.324Z,0.00
2019-03-31T01:10:52.312Z,0.00
2019-03-31T01:11:52.336Z,0.00
2019-03-31T01:12:52.355Z,0.00
2019-03-31T01:13:52.282Z,0.00
2019-03-31T01:14:52.271Z,0.00
2019-03-31T01:15:52.257Z,0.00
2019-03-31T01:16:52.287Z,0.00
2019-03-31T01:17:52.234Z,0.00
2019-03-31T01:18:52.226Z,0.00
2019-03-31T01:19:52.214Z,0.00
2019-03-31T01:20:52.201Z,0.00
2019-03-31T01:21:52.229Z,0.00
2019-03-31T01:22:52.183Z,0.00
2019-03-31T01:23:52.171Z,0.00
2019-03-31T01:24:52.156Z,0.00
2019-03-31T01:25:52.145Z,0.00
2019-03-31T01:26:52.186Z,0.00
2019-03-31T01:27:52.127Z,0.00
2019-03-31T01:28:52.131Z,0.00
2019-03-31T01:29:52.117Z,0.00
2019-03-31T01:30:52.091Z,0.00
2019-03-31T01:31:52.121Z,0.00
2019-03-31T01:32:52.071Z,0.00
2019-03-31T01:33:52.098Z,0.00
2019-03-31T01:34:52.045Z,0.00
2019-03-31T01:35:52.037Z,0.00
2019-03-31T01:36:52.023Z,0.00
2019-03-31T01:37:52.012Z,0.00
2019-03-31T01:38:52.002Z,0.00
2019-03-31T01:39:52.119Z,0.00
2019-03-31T01:40:51.978Z,0.00
2019-03-31T01:41:52.011Z,0.00
2019-03-31T01:42:51.958Z,0.00
2019-03-31T01:43:51.951Z,0.00
2019-03-31T01:44:51.937Z,0.00
2019-03-31T01:45:51.963Z,0.00
2019-03-31T01:46:51.916Z,0.00
2019-03-31T01:47:51.913Z,0.00
2019-03-31T01:48:51.896Z,0.00
2019-03-31T01:49:51.878Z,0.00
2019-03-31T01:50:51.911Z,0.00
2019-03-31T01:51:51.855Z,0.00
2019-03-31T01:52:51.851Z,0.00
2019-03-31T01:53:51.852Z,0.00
2019-03-31T01:54:51.822Z,0.00
2019-03-31T01:55:51.817Z,0.00
2019-03-31T01:56:51.845Z,0.00
2019-03-31T01:57:51.789Z,0.00
2019-03-31T01:58:51.818Z,0.00
2019-03-31T01:59:51.768Z,0.00
2019-03-31T02:00:51.807Z,0.00
2019-03-31T02:02:03.542Z,0.00
2019-03-31T02:02:52.735Z,0.00
2019-03-31T02:03:51.732Z,0.00
2019-03-31T02:04:51.719Z,0.00
2019-03-31T02:05:51.708Z,0.00
2019-03-31T02:06:51.739Z,0.00
2019-03-31T02:07:51.687Z,0.00
2019-03-31T02:08:51.666Z,0.00
2019-03-31T02:09:51.661Z,0.00
2019-03-31T02:10:51.665Z,0.00
2019-03-31T02:11:51.635Z,0.00
2019-03-31T02:12:51.668Z,0.00
2019-03-31T02:13:51.658Z,0.00
2019-03-31T02:14:51.604Z,0.00
2019-03-31T02:15:51.596Z,0.00
2019-03-31T02:16:51.583Z,0.00
2019-03-31T02:17:51.569Z,0.00
2019-03-31T02:18:51.557Z,0.00
2019-03-31T02:19:51.594Z,0.00
2019-03-31T02:20:51.539Z,0.00
2019-03-31T02:21:51.526Z,0.00
2019-03-31T02:22:51.514Z,0.00
2019-03-31T02:23:51.502Z,0.00
2019-03-31T02:24:51.531Z,0.00
2019-03-31T02:25:51.483Z,0.00
2019-03-31T02:26:51.470Z,0.00
2019-03-31T02:27:51.475Z,0.00
2019-03-31T02:28:51.488Z,0.00
2019-03-31T02:29:51.474Z,0.00
2019-03-31T02:30:51.427Z,0.00
2019-03-31T02:31:51.417Z,0.00
2019-03-31T02:32:51.449Z,0.00
2019-03-31T02:33:51.399Z,0.00
2019-03-31T02:34:51.395Z,0.00
2019-03-31T02:35:51.373Z,0.00
2019-03-31T02:36:51.365Z,0.00
2019-03-31T02:37:51.369Z,0.00
2019-03-31T02:38:51.376Z,0.00
2019-03-31T02:39:51.330Z,0.00
2019-03-31T02:40:51.317Z,0.00
2019-03-31T02:41:51.306Z,0.00
2019-03-31T02:42:51.336Z,0.00
2019-03-31T02:43:51.298Z,0.00
2019-03-31T02:44:51.273Z,0.00
2019-03-31T02:45:51.263Z,0.00
2019-03-31T02:46:51.253Z,0.00
2019-03-31T02:47:51.282Z,0.00
2019-03-31T02:48:51.231Z,0.00
2019-03-31T02:49:51.224Z,0.00
2019-03-31T02:50:51.213Z,0.00
2019-03-31T02:51:51.198Z,0.00
2019-03-31T02:52:51.197Z,0.00
2019-03-31T02:53:51.218Z,0.00
2019-03-31T02:54:51.265Z,0.00
2019-03-31T02:55:51.157Z,0.00
2019-03-31T02:56:51.155Z,0.00
2019-03-31T02:57:51.142Z,0.00
2019-03-31T02:58:51.121Z,0.00
2019-03-31T02:59:51.153Z,0.00
2019-03-31T03:00:51.099Z,0.00
2019-03-31T03:01:51.117Z,0.00
2019-03-31T03:02:51.096Z,0.00
2019-03-31T03:03:51.068Z,0.00
2019-03-31T03:04:51.056Z,0.00
2019-03-31T03:05:51.615Z,0.00
2019-03-31T03:06:51.035Z,0.00
2019-03-31T03:07:51.025Z,0.00
2019-03-31T03:08:51.062Z,0.00
2019-03-31T03:09:51.005Z,0.00
2019-03-31T03:10:50.989Z,0.00
2019-03-31T03:11:50.992Z,0.00
2019-03-31T03:12:50.980Z,0.00
2019-03-31T03:13:50.960Z,0.00
2019-03-31T03:14:50.986Z,0.00
2019-03-31T03:15:50.935Z,0.00
2019-03-31T03:16:50.922Z,0.00
2019-03-31T03:17:50.910Z,0.00
2019-03-31T03:18:50.896Z,0.00
2019-03-31T03:19:50.890Z,0.00
2019-03-31T03:20:50.917Z,0.00
2019-03-31T03:21:50.892Z,0.00
2019-03-31T03:22:50.857Z,0.00
2019-03-31T03:23:50.842Z,0.00
2019-03-31T03:24:50.834Z,0.00
2019-03-31T03:25:56.327Z,0.00
2019-03-31T03:26:51.810Z,0.00
2019-03-31T03:27:50.802Z,0.00
2019-03-31T03:28:50.795Z,0.00
2019-03-31T03:29:50.835Z,0.00
2019-03-31T03:30:50.811Z,0.00
2019-03-31T03:31:50.774Z,0.00
2019-03-31T03:33:13.692Z,0.00
2019-03-31T03:33:51.744Z,0.00
2019-03-31T03:34:50.770Z,0.00
2019-03-31T03:35:50.759Z,0.00
2019-03-31T03:36:50.699Z,0.00
2019-03-31T03:37:50.691Z,0.00
2019-03-31T03:38:50.685Z,0.00
2019-03-31T03:39:50.712Z,0.00
2019-03-31T03:40:50.726Z,0.00
2019-03-31T03:41:50.692Z,0.00
2019-03-31T03:42:50.635Z,0.00
2019-03-31T03:43:56.145Z,0.00
2019-03-31T03:44:51.613Z,0.00
2019-03-31T03:45:50.647Z,0.00
2019-03-31T03:46:50.590Z,0.00
2019-03-31T03:47:50.578Z,0.00
2019-03-31T03:48:50.625Z,0.00
2019-03-31T03:49:50.569Z,0.00
2019-03-31T03:50:50.596Z,0.00
2019-03-31T03:51:50.594Z,0.00
2019-03-31T03:52:50.576Z,0.00
2019-03-31T03:53:50.517Z,0.00
2019-03-31T03:54:50.511Z,0.00
2019-03-31T03:55:50.507Z,0.00
2019-03-31T03:56:50.522Z,0.00
2019-03-31T03:57:50.476Z,0.00
2019-03-31T03:58:50.518Z,0.00
2019-03-31T03:59:50.461Z,0.00
2019-03-31T04:00:50.449Z,0.00
2019-03-31T04:01:50.482Z,0.00
2019-03-31T04:02:50.417Z,0.00
2019-03-31T04:03:50.434Z,0.00
2019-03-31T04:04:50.397Z,0.00
2019-03-31T04:05:50.395Z,0.00
2019-03-31T04:06:50.370Z,0.00
2019-03-31T04:07:50.420Z,0.00
2019-03-31T04:08:50.349Z,0.00
2019-03-31T04:09:50.341Z,0.00
2019-03-31T04:10:50.366Z,0.00
2019-03-31T04:11:50.319Z,0.00
2019-03-31T04:12:50.349Z,0.00
2019-03-31T04:13:50.298Z,0.00
2019-03-31T04:14:50.293Z,0.00
2019-03-31T04:15:50.283Z,0.00
2019-03-31T04:16:50.309Z,0.00
2019-03-31T04:17:50.300Z,0.00
2019-03-31T04:18:50.255Z,0.00
2019-03-31T04:19:50.237Z,0.00
2019-03-31T04:20:50.219Z,0.00
2019-03-31T04:21:50.250Z,0.00
2019-03-31T04:22:50.201Z,0.00
2019-03-31T04:23:50.229Z,0.00
2019-03-31T04:24:50.175Z,0.00
2019-03-31T04:25:50.161Z,0.00
2019-03-31T04:26:50.200Z,0.00
2019-03-31T04:27:50.139Z,0.00
2019-03-31T04:28:50.129Z,0.00
2019-03-31T04:29:50.136Z,0.00
2019-03-31T04:30:50.127Z,0.00
2019-03-31T04:31:50.103Z,0.00
2019-03-31T04:32:50.144Z,0.00
2019-03-31T04:33:52.529Z,0.00
2019-03-31T04:34:50.108Z,0.00
2019-03-31T04:35:50.059Z,0.00
2019-03-31T04:36:50.045Z,0.00
2019-03-31T04:37:50.038Z,0.00
2019-03-31T04:38:50.022Z,0.00
2019-03-31T04:39:50.054Z,0.00
2019-03-31T04:40:50.011Z,4.00
2019-03-31T04:41:50.032Z,0.00
2019-03-31T04:42:49.978Z,4.00
2019-03-31T04:43:49.965Z,4.00
2019-03-31T04:44:49.964Z,4.00
2019-03-31T04:45:49.944Z,4.00
2019-03-31T04:46:49.955Z,4.00
2019-03-31T04:47:49.965Z,4.00
2019-03-31T04:48:49.913Z,8.00
2019-03-31T04:49:49.917Z,8.00
2019-03-31T04:50:52.042Z,12.00
2019-03-31T04:51:49.931Z,12.00
2019-03-31T04:52:49.867Z,16.00
2019-03-31T04:53:49.900Z,16.00
2019-03-31T04:54:49.893Z,24.00
2019-03-31T04:55:49.830Z,24.00
2019-03-31T04:56:49.824Z,32.00
2019-03-31T04:57:49.834Z,40.00
2019-03-31T04:58:49.801Z,44.00
2019-03-31T04:59:49.795Z,52.00
2019-03-31T05:00:49.820Z,60.00
2019-03-31T05:01:49.820Z,68.00
2019-03-31T05:02:49.887Z,76.00
2019-03-31T05:04:03.747Z,88.00
2019-03-31T05:04:50.745Z,100.00
2019-03-31T05:05:49.793Z,116.00
2019-03-31T05:06:49.840Z,128.00
2019-03-31T05:07:49.711Z,140.00
2019-03-31T05:08:49.705Z,156.00
2019-03-31T05:09:49.692Z,176.00
2019-03-31T05:10:49.715Z,192.00
2019-03-31T05:11:49.663Z,212.00
2019-03-31T05:12:49.764Z,240.00
2019-03-31T05:13:49.646Z,260.00
2019-03-31T05:14:49.625Z,284.00
2019-03-31T05:15:49.666Z,308.00
2019-03-31T05:16:49.610Z,336.00
2019-03-31T05:17:49.604Z,360.00
2019-03-31T05:18:49.592Z,392.00
2019-03-31T05:19:49.569Z,420.00
2019-03-31T05:20:49.564Z,448.00
2019-03-31T05:21:49.603Z,476.00
2019-03-31T05:22:52.714Z,508.00
2019-03-31T05:23:49.530Z,540.00
2019-03-31T05:24:49.532Z,572.00
2019-03-31T05:25:49.527Z,604.00
2019-03-31T05:26:49.511Z,640.00
2019-03-31T05:27:49.539Z,672.00
2019-03-31T05:28:49.478Z,708.00
2019-03-31T05:29:49.483Z,748.00
2019-03-31T05:30:49.468Z,788.00
2019-03-31T05:31:49.438Z,828.00
2019-03-31T05:32:49.437Z,868.00
2019-03-31T05:33:49.471Z,912.00
2019-03-31T05:34:49.410Z,956.00
2019-03-31T05:35:49.410Z,1000.00
2019-03-31T05:36:49.414Z,1048.00
2019-03-31T05:37:51.046Z,1096.00
2019-03-31T05:38:49.362Z,1144.00
2019-03-31T05:39:49.398Z,1188.00
2019-03-31T05:40:49.346Z,1236.00
2019-03-31T05:41:49.333Z,1280.00
2019-03-31T05:42:49.317Z,1320.00
2019-03-31T05:43:49.324Z,1360.00
2019-03-31T05:44:49.296Z,1404.00
2019-03-31T05:45:52.341Z,1448.00
2019-03-31T05:46:49.286Z,1488.00
2019-03-31T05:47:49.344Z,1536.00
2019-03-31T05:48:49.266Z,1576.00
2019-03-31T05:49:49.257Z,1628.00
2019-03-31T05:50:49.282Z,1680.00
2019-03-31T05:51:49.231Z,1728.00
2019-03-31T05:52:49.256Z,1784.00
2019-03-31T05:53:49.204Z,1840.00
2019-03-31T05:54:49.187Z,1896.00
2019-03-31T05:55:49.178Z,1952.00
2019-03-31T05:56:49.171Z,2000.00
2019-03-31T05:57:49.187Z,2052.00
2019-03-31T05:58:49.205Z,2092.00
2019-03-31T05:59:49.148Z,2136.00
2019-03-31T06:00:49.129Z,2176.00
2019-03-31T06:01:49.108Z,2216.00
2019-03-31T06:02:49.172Z,2256.00
2019-03-31T06:03:49.133Z,2296.00
2019-03-31T06:04:49.079Z,2336.00
2019-03-31T06:05:49.136Z,2384.00
2019-03-31T06:06:49.055Z,2428.00
2019-03-31T06:07:49.138Z,2484.00
2019-03-31T06:08:49.047Z,2536.00
2019-03-31T06:09:49.045Z,2584.00
2019-03-31T06:10:49.019Z,2632.00
2019-03-31T06:11:49.030Z,2672.00
2019-03-31T06:12:49.045Z,2720.00
2019-03-31T06:13:48.981Z,2760.00
2019-03-31T06:14:49.044Z,2800.00
2019-03-31T06:15:48.973Z,2836.00
2019-03-31T06:16:48.943Z,2864.00
2019-03-31T06:17:48.999Z,2884.00
2019-03-31T06:18:48.962Z,2904.00
2019-03-31T06:19:48.956Z,2924.00
2019-03-31T06:20:48.911Z,2944.00
2019-03-31T06:21:48.889Z,2972.00
2019-03-31T06:22:48.888Z,3000.00
2019-03-31T06:23:48.880Z,3032.00
2019-03-31T06:24:48.866Z,3068.00
2019-03-31T06:25:48.957Z,3104.00
2019-03-31T06:26:48.862Z,3144.00
2019-03-31T06:27:48.838Z,3184.00
2019-03-31T06:28:48.856Z,3224.00
2019-03-31T06:29:48.802Z,3272.00
2019-03-31T06:30:48.843Z,3300.00
2019-03-31T06:31:48.806Z,3332.00
2019-03-31T06:32:48.812Z,3368.00
2019-03-31T06:33:48.777Z,3400.00
2019-03-31T06:34:48.795Z,3432.00
2019-03-31T06:35:48.757Z,3464.00
2019-03-31T06:36:48.750Z,3496.00
2019-03-31T06:37:48.780Z,3520.00
2019-03-31T06:38:48.712Z,3544.00
2019-03-31T06:39:48.693Z,3572.00
2019-03-31T06:40:48.750Z,3604.00
2019-03-31T06:41:48.689Z,3632.00
2019-03-31T06:42:48.660Z,3668.00
2019-03-31T06:43:48.696Z,3700.00
2019-03-31T06:44:48.639Z,3732.00
2019-03-31T06:45:48.640Z,3776.00
2019-03-31T06:46:48.614Z,3812.00
2019-03-31T06:47:48.658Z,3852.00
2019-03-31T06:48:48.611Z,3884.00
2019-03-31T06:49:48.636Z,3920.00
2019-03-31T06:50:48.578Z,3948.00
2019-03-31T06:51:48.568Z,3980.00
2019-03-31T06:52:48.552Z,4016.00
2019-03-31T06:53:48.538Z,4040.00
2019-03-31T06:54:48.521Z,4064.00
2019-03-31T06:55:48.552Z,4088.00
2019-03-31T06:56:48.543Z,4108.00
2019-03-31T06:57:48.513Z,4136.00
2019-03-31T06:58:48.569Z,4160.00
2019-03-31T06:59:48.482Z,4180.00
2019-03-31T07:00:48.499Z,4204.00
2019-03-31T07:01:48.467Z,4232.00
2019-03-31T07:02:48.447Z,4264.00
2019-03-31T07:03:48.426Z,4292.00
2019-03-31T07:05:00.452Z,4324.00
2019-03-31T07:05:49.494Z,4352.00
2019-03-31T07:06:48.411Z,4384.00
2019-03-31T07:07:48.387Z,4412.00
2019-03-31T07:08:48.368Z,4440.00
2019-03-31T07:09:48.385Z,4468.00
2019-03-31T07:10:48.360Z,4492.00
2019-03-31T07:11:48.398Z,4512.00
2019-03-31T07:12:48.327Z,4532.00
2019-03-31T07:13:48.313Z,4556.00
2019-03-31T07:14:48.303Z,4576.00
2019-03-31T07:15:48.310Z,4596.00
2019-03-31T07:16:48.291Z,4616.00
2019-03-31T07:17:48.325Z,4636.00
2019-03-31T07:18:48.279Z,4660.00
2019-03-31T07:19:48.335Z,4684.00
2019-03-31T07:20:48.285Z,4712.00
2019-03-31T07:21:48.226Z,4736.00
2019-03-31T07:22:48.235Z,4756.00
2019-03-31T07:23:48.264Z,4780.00
2019-03-31T07:24:48.205Z,4800.00
2019-03-31T07:25:48.185Z,4820.00
2019-03-31T07:26:48.214Z,4840.00
2019-03-31T07:27:48.155Z,4860.00
2019-03-31T07:28:48.147Z,4880.00
2019-03-31T07:29:48.168Z,4892.00
2019-03-31T07:30:48.137Z,4908.00
2019-03-31T07:31:48.182Z,4928.00
2019-03-31T07:32:48.111Z,4952.00
2019-03-31T07:33:48.153Z,4980.00
2019-03-31T07:34:48.110Z,5004.00
2019-03-31T07:35:48.068Z,5024.00
2019-03-31T07:36:48.080Z,5048.00
2019-03-31T07:37:48.076Z,5068.00
2019-03-31T07:38:48.081Z,5080.00
2019-03-31T07:39:48.215Z,5100.00
2019-03-31T07:40:48.337Z,5108.00
2019-03-31T07:41:48.196Z,5120.00
2019-03-31T07:42:50.906Z,5124.00
2019-03-31T07:43:47.989Z,5136.00
2019-03-31T07:44:47.965Z,5144.00
2019-03-31T07:45:48.044Z,5156.00
2019-03-31T07:46:47.986Z,5172.00
2019-03-31T07:47:47.936Z,5188.00
2019-03-31T07:48:47.932Z,5208.00
2019-03-31T07:49:47.928Z,5228.00
2019-03-31T07:50:47.914Z,5252.00
2019-03-31T07:51:47.890Z,5272.00
2019-03-31T07:52:47.925Z,5284.00
2019-03-31T07:53:47.875Z,5300.00
2019-03-31T07:54:47.878Z,5316.00
2019-03-31T07:55:47.850Z,5332.00
2019-03-31T07:56:47.844Z,5348.00
2019-03-31T07:57:47.889Z,5364.00
2019-03-31T07:58:47.936Z,5372.00
2019-03-31T07:59:47.818Z,5384.00
2019-03-31T08:00:47.790Z,5396.00
2019-03-31T08:01:47.801Z,5408.00
2019-03-31T08:02:47.845Z,5420.00
2019-03-31T08:03:47.772Z,5428.00
2019-03-31T08:04:47.758Z,5440.00
2019-03-31T08:05:47.733Z,5448.00
2019-03-31T08:06:47.722Z,5456.00
2019-03-31T08:07:47.774Z,5468.00
2019-03-31T08:08:47.708Z,5488.00
2019-03-31T08:09:47.756Z,5504.00
2019-03-31T08:10:47.689Z,5520.00
2019-03-31T08:11:47.678Z,5536.00
2019-03-31T08:12:47.754Z,5564.00
2019-03-31T08:13:47.666Z,5588.00
2019-03-31T08:14:47.633Z,5608.00
2019-03-31T08:15:47.614Z,5624.00
2019-03-31T08:16:47.672Z,5648.00
2019-03-31T08:17:47.636Z,5656.00
2019-03-31T08:18:47.600Z,5656.00
2019-03-31T08:19:47.579Z,5660.00
2019-03-31T08:20:47.560Z,5672.00
2019-03-31T08:21:47.611Z,5692.00
2019-03-31T08:22:47.574Z,5704.00
2019-03-31T08:23:47.544Z,5712.00
2019-03-31T08:24:47.592Z,5724.00
2019-03-31T08:25:47.500Z,5736.00
2019-03-31T08:26:47.508Z,5748.00
2019-03-31T08:27:47.547Z,5764.00
2019-03-31T08:28:47.463Z,5780.00
2019-03-31T08:29:59.608Z,5788.00
2019-03-31T08:30:48.450Z,5796.00
2019-03-31T08:31:47.465Z,5808.00
2019-03-31T08:32:47.519Z,5816.00
2019-03-31T08:33:47.427Z,5824.00
2019-03-31T08:34:47.407Z,5836.00
2019-03-31T08:35:48.014Z,5840.00
2019-03-31T08:36:47.422Z,5856.00
2019-03-31T08:37:47.396Z,5868.00
2019-03-31T08:38:47.371Z,5892.00
2019-03-31T08:39:47.486Z,5908.00
2019-03-31T08:40:47.468Z,5928.00
2019-03-31T08:41:47.340Z,5952.00
2019-03-31T08:42:47.340Z,5976.00
2019-03-31T08:43:47.298Z,6008.00
2019-03-31T08:44:47.286Z,6032.00
2019-03-31T08:45:47.286Z,6060.00
2019-03-31T08:46:47.428Z,6084.00
2019-03-31T08:47:47.273Z,6100.00
2019-03-31T08:48:47.257Z,6112.00
2019-03-31T08:49:47.322Z,6128.00
2019-03-31T08:50:47.249Z,6136.00
2019-03-31T08:51:47.299Z,6144.00
2019-03-31T08:52:47.209Z,6148.00
2019-03-31T08:53:47.275Z,6152.00
2019-03-31T08:54:47.173Z,6164.00
2019-03-31T08:55:47.169Z,6164.00
2019-03-31T08:56:47.191Z,6172.00
2019-03-31T08:57:47.147Z,6188.00
2019-03-31T08:58:47.131Z,6212.00
2019-03-31T08:59:47.219Z,6236.00
2019-03-31T09:00:47.258Z,6256.00
2019-03-31T09:01:47.109Z,6284.00
2019-03-31T09:02:47.123Z,6308.00
2019-03-31T09:03:47.089Z,6332.00
2019-03-31T09:04:47.131Z,6352.00
2019-03-31T09:06:00.628Z,6364.00
2019-03-31T09:06:48.050Z,6376.00
2019-03-31T09:07:47.028Z,6388.00
2019-03-31T09:08:47.010Z,6408.00
2019-03-31T09:09:47.166Z,6416.00
2019-03-31T09:10:46.992Z,6420.00
2019-03-31T09:11:47.056Z,6428.00
2019-03-31T09:12:48.685Z,6440.00
2019-03-31T09:13:46.975Z,6440.00
2019-03-31T09:14:46.960Z,6448.00
2019-03-31T09:15:46.951Z,6448.00
2019-03-31T09:16:47.043Z,6456.00
2019-03-31T09:17:46.935Z,6460.00
2019-03-31T09:18:46.942Z,6464.00
2019-03-31T09:19:47.361Z,6472.00
2019-03-31T09:20:46.906Z,6476.00
2019-03-31T09:21:46.882Z,6488.00
2019-03-31T09:22:46.960Z,6492.00
2019-03-31T09:23:47.656Z,6500.00
2019-03-31T09:24:46.853Z,6520.00
2019-03-31T09:25:47.766Z,6536.00
2019-03-31T09:26:46.810Z,6564.00
2019-03-31T09:27:46.824Z,6576.00
2019-03-31T09:28:46.857Z,6580.00
2019-03-31T09:29:47.057Z,6588.00
2019-03-31T09:30:46.775Z,6600.00
2019-03-31T09:31:46.832Z,6608.00
2019-03-31T09:32:46.741Z,6628.00
2019-03-31T09:33:46.732Z,6652.00
2019-03-31T09:34:46.736Z,6668.00
2019-03-31T09:35:46.718Z,6688.00
2019-03-31T09:36:46.770Z,6712.00
2019-03-31T09:37:46.686Z,6724.00
2019-03-31T09:38:48.559Z,6744.00
2019-03-31T09:39:46.690Z,6776.00
2019-03-31T09:40:46.670Z,6784.00
2019-03-31T09:41:46.719Z,6804.00
2019-03-31T09:42:46.710Z,6832.00
2019-03-31T09:43:46.681Z,6848.00
2019-03-31T09:44:46.635Z,6884.00
2019-03-31T09:45:46.705Z,6908.00
2019-03-31T09:46:46.578Z,6924.00
2019-03-31T09:47:46.658Z,6944.00
2019-03-31T09:48:46.603Z,6968.00
2019-03-31T09:49:46.548Z,6980.00
2019-03-31T09:50:46.623Z,6992.00
2019-03-31T09:51:46.551Z,7008.00
2019-03-31T09:52:46.614Z,7048.00
2019-03-31T09:53:46.549Z,7076.00
2019-03-31T09:54:46.488Z,7104.00
2019-03-31T09:55:46.484Z,7132.00
2019-03-31T09:56:46.465Z,7156.00
2019-03-31T09:57:46.460Z,7196.00
2019-03-31T09:58:46.527Z,7220.00
2019-03-31T09:59:46.449Z,7240.00
2019-03-31T10:00:46.436Z,7268.00
2019-03-31T10:01:46.530Z,7288.00
2019-03-31T10:02:46.397Z,7316.00
2019-03-31T10:03:46.396Z,7344.00
2019-03-31T10:04:46.389Z,7380.00
2019-03-31T10:05:48.076Z,7416.00
2019-03-31T10:06:46.351Z,7444.00
2019-03-31T10:07:46.414Z,7460.00
2019-03-31T10:08:46.453Z,7480.00
2019-03-31T10:09:46.327Z,7520.00
2019-03-31T10:10:46.392Z,7544.00
2019-03-31T10:11:46.303Z,7572.00
2019-03-31T10:12:46.302Z,7620.00
2019-03-31T10:13:46.372Z,7652.00
2019-03-31T10:14:46.262Z,7684.00
2019-03-31T10:15:46.279Z,7708.00
2019-03-31T10:16:46.382Z,7740.00
2019-03-31T10:17:46.240Z,7772.00
2019-03-31T10:18:46.247Z,7808.00
2019-03-31T10:19:46.231Z,7836.00
2019-03-31T10:20:46.280Z,7864.00
2019-03-31T10:21:46.187Z,7892.00
2019-03-31T10:22:46.210Z,7932.00
2019-03-31T10:23:46.179Z,7968.00
2019-03-31T10:24:46.174Z,7992.00
2019-03-31T10:25:46.167Z,8020.00
2019-03-31T10:26:46.207Z,8064.00
2019-03-31T10:27:46.150Z,8096.00
2019-03-31T10:28:46.111Z,8136.00
2019-03-31T10:29:46.098Z,8168.00
2019-03-31T10:30:46.114Z,8204.00
2019-03-31T10:31:46.112Z,8236.00
2019-03-31T10:32:46.138Z,8272.00
2019-03-31T10:33:46.057Z,8308.00
2019-03-31T10:34:46.151Z,8344.00
2019-03-31T10:35:46.118Z,8384.00
2019-03-31T10:36:46.052Z,8416.00
2019-03-31T10:37:46.026Z,8464.00
2019-03-31T10:38:46.105Z,8500.00
2019-03-31T10:39:45.992Z,8544.00
2019-03-31T10:40:45.973Z,8592.00
2019-03-31T10:41:45.968Z,8632.00
2019-03-31T10:42:45.960Z,8680.00
2019-03-31T10:43:45.959Z,8724.00
2019-03-31T10:44:46.011Z,8760.00
2019-03-31T10:45:45.976Z,8820.00
2019-03-31T10:46:45.914Z,8868.00
2019-03-31T10:47:45.905Z,8908.00
2019-03-31T10:48:45.980Z,8948.00
2019-03-31T10:49:45.891Z,8968.00
2019-03-31T10:50:45.867Z,8996.00
2019-03-31T10:51:45.884Z,9024.00
2019-03-31T10:52:45.852Z,9048.00
2019-03-31T10:53:45.832Z,9080.00
2019-03-31T10:54:45.898Z,9120.00
2019-03-31T10:55:45.842Z,9176.00
2019-03-31T10:56:45.800Z,9216.00
2019-03-31T10:57:45.786Z,9248.00
2019-03-31T10:58:45.785Z,9276.00
2019-03-31T10:59:45.863Z,9296.00
2019-03-31T11:00:45.830Z,9320.00
2019-03-31T11:01:45.763Z,9340.00
2019-03-31T11:02:45.804Z,9352.00
2019-03-31T11:03:45.727Z,9368.00
2019-03-31T11:04:45.739Z,9396.00
2019-03-31T11:05:45.691Z,9440.00
2019-03-31T11:06:58.234Z,9468.00
2019-03-31T11:07:46.742Z,9496.00
2019-03-31T11:08:45.674Z,9516.00
2019-03-31T11:09:45.649Z,9540.00
2019-03-31T11:10:45.682Z,9544.00
2019-03-31T11:11:45.721Z,9560.00
2019-03-31T11:12:45.618Z,9568.00
2019-03-31T11:13:45.602Z,9576.00
2019-03-31T11:14:45.611Z,9608.00
2019-03-31T11:15:45.595Z,9652.00
2019-03-31T11:16:45.673Z,9684.00
2019-03-31T11:17:45.555Z,9728.00
2019-03-31T11:18:45.544Z,9776.00
2019-03-31T11:19:45.554Z,9796.00
2019-03-31T11:20:45.535Z,9824.00
2019-03-31T11:21:45.588Z,9856.00
2019-03-31T11:22:45.509Z,9868.00
2019-03-31T11:23:45.537Z,9916.00
2019-03-31T11:24:45.482Z,9980.00
2019-03-31T11:25:45.468Z,10044.00
2019-03-31T11:26:45.538Z,10128.00
2019-03-31T11:27:45.503Z,10200.00
2019-03-31T11:28:45.437Z,10280.00
2019-03-31T11:29:45.539Z,10348.00
2019-03-31T11:30:45.421Z,10404.00
2019-03-31T11:31:45.419Z,10456.00
2019-03-31T11:32:45.407Z,10540.00
2019-03-31T11:33:45.377Z,10616.00
2019-03-31T11:34:45.372Z,10708.00
2019-03-31T11:35:45.426Z,10768.00
2019-03-31T11:36:45.356Z,10792.00
2019-03-31T11:37:45.333Z,10820.00
2019-03-31T11:38:45.342Z,10880.00
2019-03-31T11:39:45.390Z,10952.00
2019-03-31T11:40:45.306Z,11048.00
2019-03-31T11:41:45.284Z,11100.00
2019-03-31T11:42:45.367Z,11148.00
2019-03-31T11:43:45.270Z,11176.00
2019-03-31T11:44:45.267Z,11272.00
2019-03-31T11:45:45.404Z,11356.00
2019-03-31T11:46:45.238Z,11448.00
2019-03-31T11:47:45.224Z,11552.00
2019-03-31T11:48:45.224Z,11644.00
2019-03-31T11:49:45.202Z,11720.00
2019-03-31T11:50:45.235Z,11788.00
2019-03-31T11:51:45.250Z,11868.00
2019-03-31T11:52:45.216Z,11900.00
2019-03-31T11:53:45.172Z,11916.00
2019-03-31T11:54:46.039Z,11908.00
2019-03-31T11:55:45.136Z,11896.00
2019-03-31T11:56:45.147Z,11956.00
2019-03-31T11:57:45.195Z,12004.00
2019-03-31T11:58:45.109Z,12056.00
2019-03-31T11:59:45.110Z,12096.00
2019-03-31T12:00:45.083Z,12208.00
2019-03-31T12:01:45.077Z,12272.00
2019-03-31T12:02:45.069Z,12400.00
2019-03-31T12:03:45.154Z,12532.00
2019-03-31T12:04:45.078Z,12624.00
2019-03-31T12:05:45.038Z,12656.00
2019-03-31T12:06:45.108Z,12616.00
2019-03-31T12:07:46.986Z,12572.00
2019-03-31T12:08:44.986Z,12568.00
2019-03-31T12:09:45.066Z,12508.00
2019-03-31T12:10:44.966Z,12408.00
2019-03-31T12:11:45.755Z,12408.00
2019-03-31T12:12:45.006Z,12600.00
2019-03-31T12:13:44.939Z,12716.00
2019-03-31T12:14:59.556Z,12844.00
2019-03-31T12:15:45.928Z,12980.00
2019-03-31T12:16:44.944Z,13088.00
2019-03-31T12:17:45.012Z,13188.00
2019-03-31T12:18:44.874Z,13236.00
2019-03-31T12:19:44.865Z,13320.00
2019-03-31T12:20:44.872Z,13352.00
2019-03-31T12:21:44.877Z,13352.00
2019-03-31T12:22:44.839Z,13344.00
2019-03-31T12:23:44.916Z,13400.00
2019-03-31T12:24:44.813Z,13280.00
2019-03-31T12:25:44.814Z,13228.00
2019-03-31T12:26:44.873Z,13360.00
2019-03-31T12:27:44.791Z,13388.00
2019-03-31T12:28:44.777Z,13456.00
2019-03-31T12:29:44.762Z,13548.00
2019-03-31T12:30:44.842Z,13636.00
2019-03-31T12:31:44.742Z,13676.00